createdAt,value
2019-03-31T00:01:35.064Z,80.20
2019-03-31T00:04:05.881Z,79.90
2019-03-31T00:06:36.390Z,80.00
2019-03-31T00:09:08.124Z,80.20
2019-03-31T00:11:38.714Z,80.00
2019-03-31T00:14:09.258Z,81.20
2019-03-31T00:16:39.897Z,82.60
2019-03-31T00:19:10.413Z,83.70
2019-03-31T00:21:41.221Z,84.40
2019-03-31T00:24:11.889Z,84.30
2019-03-31T00:26:42.420Z,83.70
2019-03-31T00:29:13.678Z,83.80
2019-03-31T00:31:44.272Z,83.80
2019-03-31T00:34:14.800Z,83.50
2019-03-31T00:36:45.301Z,83.40
2019-03-31T00:39:16.052Z,83.60
2019-03-31T00:41:46.491Z,83.90
2019-03-31T00:44:17.314Z,84.30
2019-03-31T00:46:47.747Z,84.20
2019-03-31T00:49:18.279Z,84.70
2019-03-31T00:51:48.741Z,84.90
2019-03-31T00:54:19.285Z,85.20
2019-03-31T00:56:49.801Z,86.20
2019-03-31T00:59:20.359Z,86.90
2019-03-31T01:01:58.525Z,87.10
2019-03-31T01:04:33.184Z,86.40
2019-03-31T01:07:04.493Z,85.80
2019-03-31T01:09:35.628Z,85.30
2019-03-31T01:12:06.835Z,85.90
2019-03-31T01:14:37.425Z,85.40
2019-03-31T01:17:10.089Z,85.60
2019-03-31T01:19:40.751Z,86.90
2019-03-31T01:22:11.278Z,86.30
2019-03-31T01:24:41.864Z,86.90
2019-03-31T01:27:13.167Z,88.10
2019-03-31T01:29:43.767Z,88.30
2019-03-31T01:32:14.387Z,87.90
2019-03-31T01:34:45.440Z,87.90
2019-03-31T01:37:19.955Z,87.90
2019-03-31T01:39:50.118Z,88.40
2019-03-31T01:42:20.910Z,87.60
2019-03-31T01:44:51.687Z,87.60
2019-03-31T01:47:22.215Z,87.40
2019-03-31T01:49:52.766Z,87.00
2019-03-31T01:52:23.382Z,86.90
2019-03-31T01:54:53.915Z,87.10
2019-03-31T01:57:24.684Z,86.60
2019-03-31T01:59:55.301Z,86.70
2019-03-31T02:02:29.944Z,87.00
2019-03-31T02:05:00.450Z,88.00
2019-03-31T02:07:30.913Z,89.00
2019-03-31T02:10:01.523Z,89.00
2019-03-31T02:12:32.023Z,89.60
2019-03-31T02:15:03.630Z,88.40
2019-03-31T02:17:34.559Z,88.50
2019-03-31T02:20:05.596Z,88.40
2019-03-31T02:22:36.109Z,87.70
2019-03-31T02:25:06.654Z,88.30
2019-03-31T02:27:37.168Z,88.10
2019-03-31T02:30:08.089Z,88.80
2019-03-31T02:32:38.701Z,88.50
2019-03-31T02:35:09.534Z,88.30
2019-03-31T02:37:40.005Z,88.60
2019-03-31T02:40:10.514Z,88.60
2019-03-31T02:42:41.541Z,88.10
2019-03-31T02:45:12.179Z,88.60
2019-03-31T02:47:42.611Z,87.30
2019-03-31T02:50:17.871Z,87.40
2019-03-31T02:52:48.380Z,88.10
2019-03-31T02:55:19.503Z,88.40
2019-03-31T02:57:50.514Z,89.20
2019-03-31T03:00:21.045Z,89.70
2019-03-31T03:02:51.548Z,89.50
2019-03-31T03:05:24.360Z,90.30
2019-03-31T03:07:56.508Z,90.40
2019-03-31T03:10:28.654Z,90.40
2019-03-31T03:13:02.321Z,90.70
2019-03-31T03:15:35.741Z,90.60
2019-03-31T03:18:06.339Z,90.90
2019-03-31T03:20:36.849Z,90.60
2019-03-31T03:23:07.392Z,90.60
2019-03-31T03:25:54.540Z,90.80
2019-03-31T03:28:10.026Z,91.00
2019-03-31T03:30:40.981Z,91.00
2019-03-31T03:33:15.693Z,91.20
2019-03-31T03:35:43.999Z,91.20
2019-03-31T03:38:14.525Z,91.10
2019-03-31T03:40:45.123Z,90.90
2019-03-31T03:43:15.911Z,91.00
2019-03-31T03:45:46.438Z,91.40
2019-03-31T03:48:17.287Z,91.10
2019-03-31T03:50:47.889Z,91.20
2019-03-31T03:53:18.854Z,91.80
2019-03-31T03:55:49.424Z,91.80
2019-03-31T03:58:19.993Z,91.80
2019-03-31T04:00:50.598Z,92.00
2019-03-31T04:03:29.932Z,91.90
2019-03-31T04:05:54.383Z,91.80
2019-03-31T04:08:24.864Z,91.60
2019-03-31T04:11:21.563Z,91.80
2019-03-31T04:13:51.263Z,91.00
2019-03-31T04:16:21.773Z,91.30
2019-03-31T04:18:52.320Z,91.20
2019-03-31T04:21:22.987Z,91.30
2019-03-31T04:23:53.516Z,91.20
2019-03-31T04:26:24.207Z,90.90
2019-03-31T04:28:54.724Z,91.20
2019-03-31T04:31:26.396Z,91.40
2019-03-31T04:33:56.973Z,91.90
2019-03-31T04:36:27.478Z,92.10
2019-03-31T04:39:00.419Z,92.00
2019-03-31T04:41:30.307Z,92.30
2019-03-31T04:44:00.741Z,92.20
2019-03-31T04:46:31.269Z,93.00
2019-03-31T04:49:02.150Z,93.40
2019-03-31T04:51:32.995Z,93.70
2019-03-31T04:54:03.537Z,93.60
2019-03-31T04:56:34.057Z,93.80
2019-03-31T04:59:04.834Z,94.40
2019-03-31T05:01:35.339Z,94.70
2019-03-31T05:04:05.859Z,94.90
2019-03-31T05:06:36.374Z,95.00
2019-03-31T05:09:07.856Z,95.30
2019-03-31T05:11:38.252Z,95.60
2019-03-31T05:14:08.826Z,95.80
2019-03-31T05:16:39.300Z,95.90
2019-03-31T05:19:09.723Z,96.10
2019-03-31T05:21:40.075Z,96.00
2019-03-31T05:24:10.582Z,96.20
2019-03-31T05:26:40.990Z,96.70
2019-03-31T05:29:11.798Z,96.80
2019-03-31T05:31:43.190Z,96.90
2019-03-31T05:34:19.306Z,96.60
2019-03-31T05:36:45.862Z,96.30
2019-03-31T05:39:16.278Z,96.10
2019-03-31T05:41:46.867Z,96.30
2019-03-31T05:44:17.717Z,96.10
2019-03-31T05:46:48.321Z,96.00
2019-03-31T05:49:18.738Z,96.10
2019-03-31T05:51:49.267Z,95.80
2019-03-31T05:54:19.905Z,95.80
2019-03-31T05:56:51.417Z,95.80
2019-03-31T05:59:22.029Z,96.10
2019-03-31T06:01:52.597Z,96.20
2019-03-31T06:04:33.062Z,96.20
2019-03-31T06:06:55.301Z,96.20
2019-03-31T06:09:25.820Z,96.20
2019-03-31T06:11:56.349Z,96.20
2019-03-31T06:14:27.116Z,96.30
2019-03-31T06:16:57.964Z,96.20
2019-03-31T06:19:28.533Z,96.50
2019-03-31T06:21:59.142Z,95.70
2019-03-31T06:24:29.740Z,95.60
2019-03-31T06:27:01.604Z,95.50
2019-03-31T06:29:32.133Z,95.60
2019-03-31T06:32:02.666Z,95.20
2019-03-31T06:34:46.862Z,94.70
2019-03-31T06:37:06.361Z,94.60
2019-03-31T06:39:37.141Z,94.20
2019-03-31T06:42:07.669Z,94.80
2019-03-31T06:44:38.491Z,94.60
2019-03-31T06:47:09.018Z,94.20
2019-03-31T06:49:40.051Z,94.10
2019-03-31T06:52:10.579Z,93.70
2019-03-31T06:54:41.363Z,93.80
2019-03-31T06:57:12.185Z,93.40
2019-03-31T06:59:42.765Z,93.90
2019-03-31T07:02:13.344Z,93.30
2019-03-31T07:04:43.865Z,93.20
2019-03-31T07:07:14.300Z,92.80
2019-03-31T07:09:44.765Z,92.90
2019-03-31T07:12:15.410Z,92.50
2019-03-31T07:14:46.331Z,92.60
2019-03-31T07:17:16.832Z,92.60
2019-03-31T07:19:47.694Z,92.10
2019-03-31T07:22:18.490Z,92.20
2019-03-31T07:24:48.952Z,92.10
2019-03-31T07:27:19.609Z,92.00
2019-03-31T07:29:50.158Z,91.90
2019-03-31T07:32:20.716Z,91.90
2019-03-31T07:34:51.563Z,91.80
2019-03-31T07:37:22.924Z,92.00
2019-03-31T07:39:53.666Z,91.80
2019-03-31T07:42:24.642Z,91.70
2019-03-31T07:44:55.413Z,91.10
2019-03-31T07:47:26.610Z,91.60
2019-03-31T07:49:57.459Z,90.70
2019-03-31T07:52:30.165Z,90.40
2019-03-31T07:55:00.943Z,90.10
2019-03-31T07:57:31.720Z,88.40
2019-03-31T08:00:02.404Z,87.50
2019-03-31T08:02:33.116Z,86.20
2019-03-31T08:05:03.657Z,84.40
2019-03-31T08:07:34.496Z,84.50
2019-03-31T08:10:05.700Z,83.80
2019-03-31T08:12:36.591Z,82.40
2019-03-31T08:15:07.202Z,82.40
2019-03-31T08:17:37.911Z,82.80
2019-03-31T08:20:10.444Z,84.00
2019-03-31T08:22:40.983Z,84.20
2019-03-31T08:25:12.082Z,84.90
2019-03-31T08:27:42.831Z,85.30
2019-03-31T08:30:14.860Z,84.50
2019-03-31T08:32:45.883Z,84.30
2019-03-31T08:35:16.565Z,84.40
2019-03-31T08:37:47.093Z,85.10
2019-03-31T08:40:17.602Z,85.50
2019-03-31T08:42:49.434Z,85.50
2019-03-31T08:45:20.070Z,86.30
2019-03-31T08:47:50.482Z,86.10
2019-03-31T08:50:21.078Z,85.10
2019-03-31T08:52:51.969Z,84.50
2019-03-31T08:55:22.895Z,84.80
2019-03-31T08:57:53.406Z,82.70
2019-03-31T09:00:30.354Z,81.10
2019-03-31T09:03:00.808Z,80.60
2019-03-31T09:05:31.669Z,79.90
2019-03-31T09:08:02.269Z,79.40
2019-03-31T09:10:32.839Z,80.30
2019-03-31T09:13:03.376Z,80.50
2019-03-31T09:15:33.949Z,82.60
2019-03-31T09:18:04.690Z,84.40
2019-03-31T09:20:35.552Z,85.20
2019-03-31T09:23:07.444Z,84.70
2019-03-31T09:25:38.060Z,85.80
2019-03-31T09:28:08.584Z,85.10
2019-03-31T09:30:39.572Z,84.90
2019-03-31T09:33:10.415Z,84.10
2019-03-31T09:35:40.989Z,85.00
2019-03-31T09:38:11.364Z,83.70
2019-03-31T09:40:41.882Z,82.80
2019-03-31T09:43:12.405Z,82.90
2019-03-31T09:45:43.259Z,81.90
2019-03-31T09:48:14.167Z,81.20
2019-03-31T09:50:44.811Z,80.70
2019-03-31T09:53:15.362Z,81.30
2019-03-31T09:55:45.935Z,81.40
2019-03-31T09:58:18.172Z,82.40
2019-03-31T10:00:52.191Z,82.70
2019-03-31T10:03:22.889Z,83.60
2019-03-31T10:05:53.846Z,84.30
2019-03-31T10:08:24.374Z,84.90
2019-03-31T10:10:55.278Z,83.70
2019-03-31T10:13:25.830Z,84.90
2019-03-31T10:15:56.432Z,83.20
2019-03-31T10:18:27.217Z,82.10
2019-03-31T10:20:58.371Z,81.70
2019-03-31T10:23:29.940Z,82.20
2019-03-31T10:26:00.487Z,81.90
2019-03-31T10:28:31.038Z,81.10
2019-03-31T10:31:01.574Z,82.00
2019-03-31T10:33:32.538Z,82.00
2019-03-31T10:36:03.486Z,80.80
2019-03-31T10:38:34.066Z,81.10
2019-03-31T10:41:04.613Z,78.80
2019-03-31T10:43:35.833Z,79.90
2019-03-31T10:46:08.028Z,79.80
2019-03-31T10:48:38.979Z,78.40
2019-03-31T10:51:09.577Z,77.60
2019-03-31T10:53:40.131Z,77.50
2019-03-31T10:56:10.647Z,77.90
2019-03-31T10:58:41.288Z,77.30
2019-03-31T11:01:11.786Z,78.80
2019-03-31T11:03:42.344Z,79.00
2019-03-31T11:06:12.984Z,77.30
2019-03-31T11:08:43.450Z,76.50
2019-03-31T11:11:13.916Z,75.90
2019-03-31T11:13:44.464Z,73.60
2019-03-31T11:16:15.413Z,71.50
2019-03-31T11:18:46.181Z,69.10
2019-03-31T11:21:27.748Z,68.60
2019-03-31T11:23:58.299Z,68.00
2019-03-31T11:26:28.806Z,69.50
2019-03-31T11:28:59.767Z,68.00
2019-03-31T11:31:30.338Z,69.10
2019-03-31T11:34:02.461Z,67.90
2019-03-31T11:36:33.343Z,68.20
2019-03-31T11:39:06.323Z,65.70
2019-03-31T11:41:37.240Z,64.50
2019-03-31T11:44:07.745Z,63.90
2019-03-31T11:46:38.788Z,64.10
2019-03-31T11:49:10.550Z,65.60
2019-03-31T11:51:41.095Z,64.10
2019-03-31T11:54:12.066Z,64.10
2019-03-31T11:56:42.727Z,60.10
2019-03-31T11:59:13.346Z,60.10
2019-03-31T12:01:43.862Z,57.40
2019-03-31T12:04:14.419Z,57.80
2019-03-31T12:06:45.298Z,59.60
2019-03-31T12:09:16.376Z,58.30
2019-03-31T12:11:47.224Z,58.20
2019-03-31T12:14:17.791Z,59.60
2019-03-31T12:16:48.695Z,58.20
2019-03-31T12:19:19.326Z,57.80
2019-03-31T12:21:49.893Z,59.80
2019-03-31T12:24:20.390Z,57.90
2019-03-31T12:26:51.214Z,54.60
2019-03-31T12:29:22.085Z,53.60
2019-03-31T12:31:52.972Z,51.90
2019-03-31T12:34:23.623Z,51.80
2019-03-31T12:36:54.408Z,53.30
2019-03-31T12:39:25.125Z,53.20
2019-03-31T12:41:55.590Z,55.60
2019-03-31T12:44:26.355Z,56.10
2019-03-31T12:46:57.753Z,54.80
2019-03-31T12:49:28.350Z,56.30
2019-03-31T12:51:58.908Z,57.30
2019-03-31T12:54:29.435Z,56.80
2019-03-31T12:57:00.348Z,55.30
2019-03-31T12:59:31.036Z,56.20
2019-03-31T13:02:01.573Z,55.90
2019-03-31T13:04:32.198Z,56.70
2019-03-31T13:07:02.831Z,55.20
2019-03-31T13:09:33.360Z,54.50
2019-03-31T13:12:03.979Z,52.60
2019-03-31T13:14:34.474Z,52.50
2019-03-31T13:17:05.399Z,52.00
2019-03-31T13:19:35.912Z,49.40
2019-03-31T13:22:06.930Z,48.80
2019-03-31T13:24:37.599Z,48.30
2019-03-31T13:27:08.426Z,45.90
2019-03-31T13:29:39.496Z,48.70
2019-03-31T13:32:09.936Z,51.00
2019-03-31T13:34:40.408Z,53.00
2019-03-31T13:37:11.019Z,53.50
2019-03-31T13:39:41.907Z,52.80
2019-03-31T13:42:12.443Z,50.90
2019-03-31T13:44:43.021Z,52.00
2019-03-31T13:47:13.829Z,50.90
2019-03-31T13:49:45.082Z,49.50
2019-03-31T13:52:15.848Z,52.30
2019-03-31T13:54:46.315Z,50.40
2019-03-31T13:57:17.401Z,50.10
2019-03-31T13:59:48.690Z,48.00
2019-03-31T14:02:19.596Z,47.40
2019-03-31T14:04:51.699Z,48.40
2019-03-31T14:07:22.645Z,49.20
2019-03-31T14:09:53.211Z,48.40
2019-03-31T14:12:25.292Z,51.60
2019-03-31T14:14:55.895Z,51.00
2019-03-31T14:17:26.442Z,51.50
2019-03-31T14:19:56.946Z,52.70
2019-03-31T14:22:27.855Z,52.30
2019-03-31T14:24:58.351Z,52.10
2019-03-31T14:27:29.123Z,50.30
2019-03-31T14:29:59.914Z,47.80
2019-03-31T14:32:30.384Z,47.00
2019-03-31T14:35:00.806Z,47.90
2019-03-31T14:37:31.322Z,48.90
2019-03-31T14:40:01.828Z,48.30
2019-03-31T14:42:32.421Z,48.20
2019-03-31T14:45:03.006Z,47.10
2019-03-31T14:47:33.498Z,47.10
2019-03-31T14:50:04.194Z,46.20
2019-03-31T14:52:34.722Z,47.40
2019-03-31T14:55:05.438Z,48.00
2019-03-31T14:57:36.054Z,47.10
2019-03-31T15:00:14.663Z,47.10
2019-03-31T15:02:39.928Z,48.50
2019-03-31T15:05:10.549Z,48.30
2019-03-31T15:07:41.573Z,49.80
2019-03-31T15:10:12.205Z,50.30
2019-03-31T15:12:44.526Z,49.60
2019-03-31T15:15:16.136Z,48.40
2019-03-31T15:17:46.973Z,48.30
2019-03-31T15:20:17.615Z,48.50
2019-03-31T15:22:51.305Z,48.50
2019-03-31T15:25:20.533Z,48.80
2019-03-31T15:27:52.745Z,48.10
2019-03-31T15:30:23.681Z,48.30
2019-03-31T15:32:54.793Z,47.80
2019-03-31T15:35:26.468Z,47.70
2019-03-31T15:37:56.942Z,46.40
2019-03-31T15:40:28.017Z,46.80
2019-03-31T15:42:58.847Z,46.30
2019-03-31T15:45:29.873Z,46.50
2019-03-31T15:48:00.777Z,46.50
2019-03-31T15:50:31.385Z,45.80
2019-03-31T15:53:02.181Z,46.00
2019-03-31T15:55:32.985Z,45.80
2019-03-31T15:58:05.303Z,45.90
2019-03-31T16:00:35.959Z,47.00
2019-03-31T16:03:06.823Z,44.90
2019-03-31T16:05:37.373Z,46.90
2019-03-31T16:08:07.459Z,47.10
2019-03-31T16:10:37.427Z,47.40
2019-03-31T16:13:07.464Z,47.00
2019-03-31T16:15:37.526Z,45.90
2019-03-31T16:18:07.541Z,45.60
2019-03-31T16:20:37.960Z,47.00
2019-03-31T16:23:07.945Z,46.80
2019-03-31T16:25:40.370Z,47.50
2019-03-31T16:28:10.546Z,48.20
2019-03-31T16:30:40.799Z,48.90
2019-03-31T16:33:10.704Z,49.10
2019-03-31T16:35:40.972Z,49.40
2019-03-31T16:38:10.936Z,47.60
2019-03-31T16:40:41.482Z,50.20
2019-03-31T16:43:11.472Z,49.30
2019-03-31T16:45:41.382Z,48.90
2019-03-31T16:48:11.380Z,49.90
2019-03-31T16:50:41.644Z,49.40
2019-03-31T16:53:11.633Z,50.00
2019-03-31T16:55:41.755Z,50.50
2019-03-31T16:58:12.028Z,51.20
2019-03-31T17:00:42.265Z,52.10
2019-03-31T17:03:12.577Z,51.10
2019-03-31T17:05:42.573Z,52.00
2019-03-31T17:08:12.606Z,52.50
2019-03-31T17:10:42.732Z,52.60
2019-03-31T17:13:14.236Z,53.70
2019-03-31T17:15:44.548Z,54.30
2019-03-31T17:18:14.498Z,54.90
2019-03-31T17:20:44.514Z,55.40
2019-03-31T17:23:14.747Z,54.70
2019-03-31T17:25:45.066Z,55.00
2019-03-31T17:28:15.122Z,55.60
2019-03-31T17:30:45.027Z,56.20
2019-03-31T17:33:14.965Z,56.50
2019-03-31T17:35:44.940Z,56.30
2019-03-31T17:38:14.840Z,56.80
2019-03-31T17:40:44.867Z,57.00
2019-03-31T17:43:15.190Z,57.60
2019-03-31T17:45:45.367Z,57.80
2019-03-31T17:48:15.355Z,57.60
2019-03-31T17:50:45.303Z,58.70
2019-03-31T17:53:15.283Z,58.70
2019-03-31T17:55:45.617Z,58.60
2019-03-31T17:58:15.609Z,58.50
2019-03-31T18:00:45.546Z,58.90
2019-03-31T18:03:15.830Z,59.30
2019-03-31T18:05:45.859Z,59.60
2019-03-31T18:08:15.907Z,59.90
2019-03-31T18:10:46.214Z,60.20
2019-03-31T18:13:16.282Z,61.00
2019-03-31T18:15:47.245Z,61.20
2019-03-31T18:18:17.541Z,61.10
2019-03-31T18:20:47.523Z,61.50
2019-03-31T18:23:17.355Z,61.50
2019-03-31T18:25:47.579Z,62.50
2019-03-31T18:28:17.936Z,62.50
2019-03-31T18:30:47.806Z,62.60
2019-03-31T18:33:17.800Z,62.90
2019-03-31T18:35:48.363Z,62.90
2019-03-31T18:38:18.326Z,63.30
2019-03-31T18:40:48.392Z,64.50
2019-03-31T18:43:18.609Z,63.70
2019-03-31T18:45:48.495Z,64.10
2019-03-31T18:48:18.642Z,63.80
2019-03-31T18:50:48.504Z,63.90
2019-03-31T18:53:35.931Z,64.30
2019-03-31T18:56:37.276Z,65.00
2019-03-31T18:59:17.966Z,65.10
2019-03-31T19:01:56.860Z,64.80
2019-03-31T19:04:49.028Z,64.90
2019-03-31T19:07:36.544Z,65.40
2019-03-31T19:10:25.701Z,65.80
2019-03-31T19:13:26.789Z,65.90
2019-03-31T19:16:15.572Z,65.70
2019-03-31T19:19:03.246Z,65.50
2019-03-31T19:21:51.461Z,65.40
2019-03-31T19:24:39.337Z,65.60
2019-03-31T19:27:17.339Z,65.10
2019-03-31T19:30:04.498Z,64.90
2019-03-31T19:32:42.517Z,65.20
2019-03-31T19:35:20.957Z,64.80
2019-03-31T19:38:00.753Z,65.00
2019-03-31T19:40:43.364Z,65.40
2019-03-31T19:43:31.248Z,65.60
2019-03-31T19:46:35.844Z,65.30
2019-03-31T19:49:39.864Z,66.10
2019-03-31T19:52:27.845Z,66.20
2019-03-31T19:55:25.704Z,66.10
2019-03-31T19:58:17.339Z,66.00
2019-03-31T20:01:24.518Z,66.90
2019-03-31T20:04:16.186Z,66.60
2019-03-31T20:07:20.283Z,66.60
2019-03-31T20:10:05.869Z,66.60
2019-03-31T20:12:42.895Z,67.40
2019-03-31T20:15:43.878Z,67.60
2019-03-31T20:18:31.399Z,67.10
2019-03-31T20:21:32.121Z,67.10
2019-03-31T20:24:07.590Z,68.10
2019-03-31T20:26:57.429Z,68.40
2019-03-31T20:29:41.199Z,68.70
2019-03-31T20:32:30.223Z,68.90
2019-03-31T20:35:25.374Z,69.50
2019-03-31T20:38:13.646Z,70.20
2019-03-31T20:40:49.478Z,70.00
2019-03-31T20:43:47.649Z,71.10
2019-03-31T20:46:17.696Z,71.40
2019-03-31T20:48:47.663Z,71.00
2019-03-31T20:51:18.695Z,70.30
2019-03-31T20:53:48.715Z,70.90
2019-03-31T20:56:18.625Z,71.30
2019-03-31T20:58:48.672Z,71.00
2019-03-31T21:01:18.827Z,71.70
2019-03-31T21:03:48.815Z,71.50
2019-03-31T21:06:18.784Z,71.90
2019-03-31T21:08:48.745Z,72.10
2019-03-31T21:11:18.847Z,71.80
2019-03-31T21:13:49.108Z,72.50
2019-03-31T21:16:19.157Z,72.70
2019-03-31T21:18:49.189Z,72.80
2019-03-31T21:21:19.861Z,72.80
2019-03-31T21:23:50.801Z,72.80
2019-03-31T21:26:22.365Z,72.70
2019-03-31T21:28:52.412Z,73.30
2019-03-31T21:31:22.461Z,73.00
2019-03-31T21:33:52.702Z,73.40
2019-03-31T21:36:22.609Z,73.00
2019-03-31T21:38:53.772Z,73.60
2019-03-31T21:41:23.754Z,73.70
2019-03-31T21:43:54.010Z,73.80
2019-03-31T21:46:24.221Z,73.50
2019-03-31T21:48:54.654Z,74.10
2019-03-31T21:51:24.790Z,73.80
2019-03-31T21:53:54.778Z,73.50
2019-03-31T21:56:24.739Z,73.80
2019-03-31T21:58:54.699Z,73.40
2019-03-31T22:01:24.728Z,73.90
2019-03-31T22:03:54.764Z,73.30
2019-03-31T22:06:25.089Z,74.00
2019-03-31T22:08:55.080Z,74.00
2019-03-31T22:11:25.077Z,74.40
2019-03-31T22:13:55.060Z,74.40
2019-03-31T22:16:25.412Z,74.90
2019-03-31T22:18:55.477Z,74.70
2019-03-31T22:21:25.806Z,73.90
2019-03-31T22:23:58.216Z,74.50
2019-03-31T22:26:27.511Z,73.80
2019-03-31T22:28:58.615Z,74.50
2019-03-31T22:31:28.621Z,74.60
2019-03-31T22:33:58.692Z,74.40
2019-03-31T22:36:28.714Z,75.20
2019-03-31T22:38:58.785Z,76.00
2019-03-31T22:41:28.744Z,77.30
2019-03-31T22:43:58.763Z,78.10
2019-03-31T22:46:28.729Z,77.70
2019-03-31T22:48:58.702Z,77.10
2019-03-31T22:51:28.652Z,77.20
2019-03-31T22:53:58.608Z,75.70
2019-03-31T22:56:28.874Z,76.50
2019-03-31T22:58:58.834Z,76.20
2019-03-31T23:01:28.804Z,77.00
2019-03-31T23:03:59.128Z,77.60
2019-03-31T23:06:29.442Z,77.50
2019-03-31T23:09:00.714Z,77.80
2019-03-31T23:11:32.182Z,77.10
2019-03-31T23:14:02.077Z,76.90
2019-03-31T23:16:32.341Z,77.00
2019-03-31T23:19:02.251Z,76.10
2019-03-31T23:21:32.337Z,76.40
2019-03-31T23:24:02.299Z,75.30
2019-03-31T23:26:32.510Z,76.20
2019-03-31T23:29:02.392Z,74.70
2019-03-31T23:31:33.421Z,76.20
2019-03-31T23:34:03.327Z,76.70
2019-03-31T23:36:33.317Z,75.80
2019-03-31T23:39:05.101Z,76.00
2019-03-31T23:41:35.187Z,76.90
2019-03-31T23:44:05.175Z,77.60
2019-03-31T23:46:35.144Z,76.80
2019-03-31T23:49:05.040Z,75.40
2019-03-31T23:51:35.036Z,75.90
2019-03-31T23:54:05.313Z,76.30
2019-03-31T23:56:36.506Z,77.30
2019-03-31T23:59:07.076Z,77.90
